createdAt,value
2023-12-11T00:01:27.879Z,98856.56
2023-12-11T00:03:59.485Z,98860.06
2023-12-11T00:06:31.490Z,98867.00
2023-12-11T00:09:02.407Z,98863.53
2023-12-11T00:11:32.845Z,98881.81
2023-12-11T00:14:03.461Z,98880.97
2023-12-11T00:16:38.345Z,98874.03
2023-12-11T00:19:12.791Z,98877.50
2023-12-11T00:21:43.924Z,98873.16
2023-12-11T00:24:15.383Z,98867.06
2023-12-11T00:26:45.785Z,98866.19
2023-12-11T00:29:16.381Z,98863.56
2023-12-11T00:31:50.092Z,98868.78
2023-12-11T00:34:20.640Z,98858.34
2023-12-11T00:36:51.448Z,98857.50
2023-12-11T00:39:22.421Z,98856.63
2023-12-11T00:41:54.439Z,98867.03
2023-12-11T00:44:28.710Z,98856.59
2023-12-11T00:47:05.412Z,98860.03
2023-12-11T00:49:37.582Z,98853.91
2023-12-11T00:52:09.373Z,98841.72
2023-12-11T00:54:39.847Z,98851.28
2023-12-11T00:57:10.683Z,98852.16
2023-12-11T00:59:41.101Z,98847.78
2023-12-11T01:02:15.883Z,98843.44
2023-12-11T01:04:48.086Z,98841.66
2023-12-11T01:07:21.161Z,98852.09
2023-12-11T01:09:51.622Z,98852.94
2023-12-11T01:12:23.406Z,98839.03
2023-12-11T01:14:54.155Z,98836.41
2023-12-11T01:17:38.488Z,98807.75
2023-12-11T01:20:12.595Z,98802.53
2023-12-11T01:22:43.423Z,98786.03
2023-12-11T01:25:15.455Z,98777.28
2023-12-11T01:27:45.911Z,98763.41
2023-12-11T01:30:18.425Z,98768.63
2023-12-11T01:32:51.585Z,98768.59
2023-12-11T01:35:22.432Z,98772.03
2023-12-11T01:37:53.391Z,98782.44
2023-12-11T01:40:23.885Z,98819.72
2023-12-11T01:43:04.293Z,98846.66
2023-12-11T01:45:41.359Z,98805.81
2023-12-11T01:48:16.373Z,98816.25
2023-12-11T01:50:49.393Z,98816.25
2023-12-11T01:53:20.045Z,98813.66
2023-12-11T01:55:52.227Z,98822.34
2023-12-11T01:58:24.396Z,98813.66
2023-12-11T02:00:56.637Z,98798.03
2023-12-11T02:03:29.948Z,98771.97
2023-12-11T02:06:00.780Z,98752.00
2023-12-11T02:08:33.229Z,98726.81
2023-12-11T02:11:04.691Z,98701.63
2023-12-11T02:13:36.415Z,98693.81
2023-12-11T02:16:07.928Z,98696.41
2023-12-11T02:18:41.246Z,98723.31
2023-12-11T02:21:12.330Z,98733.75
2023-12-11T02:23:51.456Z,98730.25
2023-12-11T02:26:26.406Z,98731.16
2023-12-11T02:28:58.408Z,98724.19
2023-12-11T02:31:30.389Z,98718.09
2023-12-11T02:34:01.474Z,98716.38
2023-12-11T02:36:32.008Z,98705.97
2023-12-11T02:39:03.843Z,98689.47
2023-12-11T02:41:37.869Z,98680.78
2023-12-11T02:44:10.088Z,98665.16
2023-12-11T02:46:42.372Z,98653.88
2023-12-11T02:49:14.591Z,98651.31
2023-12-11T02:51:45.059Z,98649.53
2023-12-11T02:54:15.548Z,98645.25
2023-12-11T02:56:49.391Z,98647.84
2023-12-11T02:59:19.815Z,98653.94
2023-12-11T03:01:51.441Z,98641.75
2023-12-11T03:04:22.765Z,98640.91
2023-12-11T03:06:55.438Z,98630.50
2023-12-11T03:09:28.584Z,98630.50
2023-12-11T03:12:01.962Z,98627.91
2023-12-11T03:14:32.370Z,98627.88
2023-12-11T03:17:03.334Z,98617.44
2023-12-11T03:19:35.531Z,98618.31
2023-12-11T03:22:06.124Z,98607.03
2023-12-11T03:24:37.117Z,98600.06
2023-12-11T03:27:10.367Z,98601.81
2023-12-11T03:29:42.816Z,98586.19
2023-12-11T03:32:13.399Z,98579.22
2023-12-11T03:34:44.448Z,98591.38
2023-12-11T03:37:18.438Z,98574.03
2023-12-11T03:39:49.280Z,98579.22
2023-12-11T03:42:22.780Z,98571.38
2023-12-11T03:44:55.517Z,98571.38
2023-12-11T03:47:27.194Z,98573.09
2023-12-11T03:49:59.145Z,98573.09
2023-12-11T03:52:30.399Z,98579.16
2023-12-11T03:55:02.670Z,98569.63
2023-12-11T03:57:36.392Z,98569.63
2023-12-11T04:00:07.754Z,98577.44
2023-12-11T04:02:38.237Z,98573.97
2023-12-11T04:05:10.139Z,98568.78
2023-12-11T04:07:41.902Z,98565.31
2023-12-11T04:10:14.042Z,98560.13
2023-12-11T04:12:48.397Z,98564.44
2023-12-11T04:15:19.376Z,98558.38
2023-12-11T04:17:50.370Z,98550.56
2023-12-11T04:20:21.371Z,98547.97
2023-12-11T04:22:54.382Z,98553.19
2023-12-11T04:25:25.342Z,98548.84
2023-12-11T04:28:01.411Z,98544.53
2023-12-11T04:30:31.893Z,98551.44
2023-12-11T04:33:05.641Z,98544.50
2023-12-11T04:35:36.074Z,98545.41
2023-12-11T04:38:06.492Z,98543.69
2023-12-11T04:40:37.411Z,98539.34
2023-12-11T04:43:12.460Z,98548.88
2023-12-11T04:45:45.364Z,98539.31
2023-12-11T04:48:15.991Z,98527.16
2023-12-11T04:50:47.250Z,98534.97
2023-12-11T04:53:19.336Z,98521.09
2023-12-11T04:55:50.490Z,98524.53
2023-12-11T04:58:24.381Z,98524.56
2023-12-11T05:00:54.886Z,98524.56
2023-12-11T05:03:25.323Z,98526.28
2023-12-11T05:05:55.777Z,98514.13
2023-12-11T05:08:29.047Z,98503.72
2023-12-11T05:11:01.134Z,98504.56
2023-12-11T05:13:34.195Z,98510.63
2023-12-11T05:16:05.471Z,98513.22
2023-12-11T05:18:37.132Z,98514.94
2023-12-11T05:21:10.533Z,98504.47
2023-12-11T05:23:42.097Z,98511.44
2023-12-11T05:26:12.573Z,98511.41
2023-12-11T05:28:45.797Z,98498.34
2023-12-11T05:31:16.352Z,98506.13
2023-12-11T05:33:46.983Z,98493.91
2023-12-11T05:36:19.058Z,98508.66
2023-12-11T05:38:50.317Z,98500.81
2023-12-11T05:41:21.582Z,98499.88
2023-12-11T05:43:58.805Z,98498.97
2023-12-11T05:46:30.470Z,98505.03
2023-12-11T05:49:01.404Z,98506.78
2023-12-11T05:51:32.320Z,98512.00
2023-12-11T05:54:03.533Z,98512.00
2023-12-11T05:56:38.357Z,98510.28
2023-12-11T05:59:12.018Z,98506.78
2023-12-11T06:01:44.461Z,98522.50
2023-12-11T06:04:15.527Z,98514.63
2023-12-11T06:06:48.336Z,98508.56
2023-12-11T06:09:19.351Z,98519.00
2023-12-11T06:11:49.820Z,98512.91
2023-12-11T06:14:24.768Z,98512.91
2023-12-11T06:16:59.260Z,98515.50
2023-12-11T06:19:31.405Z,98517.22
2023-12-11T06:22:02.269Z,98517.28
2023-12-11T06:24:33.335Z,98516.41
2023-12-11T06:27:04.369Z,98516.44
2023-12-11T06:29:38.377Z,98523.34
2023-12-11T06:32:10.328Z,98525.13
2023-12-11T06:34:40.920Z,98529.47
2023-12-11T06:37:15.436Z,98525.13
2023-12-11T06:39:46.725Z,98548.63
2023-12-11T06:42:17.218Z,98531.25
2023-12-11T06:44:50.329Z,98533.03
2023-12-11T06:47:21.363Z,98534.75
2023-12-11T06:49:52.514Z,98531.31
2023-12-11T06:52:23.057Z,98544.38
2023-12-11T06:54:55.671Z,98549.53
2023-12-11T06:57:28.586Z,98541.72
2023-12-11T07:00:06.900Z,98544.31
2023-12-11T07:02:38.470Z,98545.19
2023-12-11T07:05:11.177Z,98539.94
2023-12-11T07:07:42.454Z,98546.03
2023-12-11T07:10:17.374Z,98551.25
2023-12-11T07:12:50.726Z,98549.44
2023-12-11T07:15:27.648Z,98552.88
2023-12-11T07:17:59.403Z,98552.84
2023-12-11T07:20:29.864Z,98554.59
2023-12-11T07:23:01.673Z,98554.59
2023-12-11T07:25:34.152Z,98558.09
2023-12-11T07:28:05.128Z,98549.34
2023-12-11T07:30:38.430Z,98545.84
2023-12-11T07:33:10.113Z,98554.50
2023-12-11T07:35:40.748Z,98553.59
2023-12-11T07:38:12.167Z,98541.41
2023-12-11T07:40:43.054Z,98553.53
2023-12-11T07:43:13.507Z,98556.97
2023-12-11T07:45:48.088Z,98554.34
2023-12-11T07:48:20.716Z,98544.75
2023-12-11T07:50:51.327Z,98558.69
2023-12-11T07:53:22.328Z,98553.38
2023-12-11T07:55:54.017Z,98561.22
2023-12-11T07:58:25.442Z,98561.25
2023-12-11T08:00:58.797Z,98549.03
2023-12-11T08:03:30.289Z,98560.34
2023-12-11T08:06:01.336Z,98568.16
2023-12-11T08:08:31.847Z,98567.31
2023-12-11T08:11:02.304Z,98568.16
2023-12-11T08:13:34.326Z,98572.53
2023-12-11T08:16:08.885Z,98579.47
2023-12-11T08:18:41.276Z,98562.88
2023-12-11T08:21:12.260Z,98575.06
2023-12-11T08:23:45.335Z,98569.84
2023-12-11T08:26:19.797Z,98571.56
2023-12-11T08:28:52.272Z,98562.81
2023-12-11T08:31:27.011Z,98565.41
2023-12-11T08:33:57.612Z,98575.84
2023-12-11T08:36:28.294Z,98578.47
2023-12-11T08:38:59.468Z,98570.59
2023-12-11T08:41:32.077Z,98561.84
2023-12-11T08:44:02.604Z,98587.09
2023-12-11T08:46:36.324Z,98580.09
2023-12-11T08:49:07.211Z,98585.31
2023-12-11T08:51:37.895Z,98592.28
2023-12-11T08:54:08.743Z,98590.47
2023-12-11T08:56:41.591Z,98584.28
2023-12-11T08:59:13.296Z,98590.31
2023-12-11T09:01:48.076Z,98594.59
2023-12-11T09:04:22.421Z,98600.63
2023-12-11T09:06:54.394Z,98592.78
2023-12-11T09:09:25.300Z,98594.56
2023-12-11T09:11:56.054Z,98581.44
2023-12-11T09:14:26.615Z,98599.72
2023-12-11T09:17:00.302Z,98597.94
2023-12-11T09:19:40.389Z,98604.03
2023-12-11T09:22:19.109Z,98603.03
2023-12-11T09:24:50.341Z,98583.81
2023-12-11T09:27:21.505Z,98598.66
2023-12-11T09:29:53.298Z,98602.16
2023-12-11T09:32:27.711Z,98600.34
2023-12-11T09:34:59.282Z,98588.19
2023-12-11T09:37:31.567Z,98596.84
2023-12-11T09:40:03.149Z,98582.91
2023-12-11T09:42:35.287Z,98593.28
2023-12-11T09:45:07.287Z,98590.59
2023-12-11T09:47:45.676Z,98587.09
2023-12-11T09:50:17.784Z,98577.47
2023-12-11T09:52:48.609Z,98566.91
2023-12-11T09:55:19.713Z,98576.16
2023-12-11T09:57:52.291Z,98570.38
2023-12-11T10:00:24.273Z,98568.19
2023-12-11T10:02:58.778Z,98553.75
2023-12-11T10:05:30.392Z,98568.50
2023-12-11T10:08:02.309Z,98555.81
2023-12-11T10:10:38.719Z,98556.25
2023-12-11T10:13:09.998Z,98553.31
2023-12-11T10:15:40.753Z,98542.94
2023-12-11T10:18:15.864Z,98544.84
2023-12-11T10:20:47.437Z,98544.38
2023-12-11T10:23:23.287Z,98543.03
2023-12-11T10:25:57.522Z,98535.00
2023-12-11T10:28:30.789Z,98526.75
2023-12-11T10:31:04.319Z,98531.25
2023-12-11T10:33:37.870Z,98533.13
2023-12-11T10:36:15.250Z,98520.97
2023-12-11T10:38:48.266Z,98512.19
2023-12-11T10:41:29.280Z,98515.56
2023-12-11T10:44:12.048Z,98511.03
2023-12-11T10:46:49.270Z,98503.13
2023-12-11T10:49:23.189Z,98490.31
2023-12-11T10:51:56.785Z,98493.72
2023-12-11T10:54:28.125Z,98492.13
2023-12-11T10:57:00.699Z,98491.22
2023-12-11T10:59:33.240Z,98488.44
2023-12-11T11:02:05.167Z,98494.47
2023-12-11T11:04:45.254Z,98487.00
2023-12-11T11:07:34.077Z,98477.81
2023-12-11T11:10:10.716Z,98479.91
2023-12-11T11:12:49.544Z,98473.59
2023-12-11T11:15:24.753Z,98480.84
2023-12-11T11:18:06.739Z,98473.22
2023-12-11T11:20:43.284Z,98474.63
2023-12-11T11:23:28.420Z,98476.59
2023-12-11T11:25:59.585Z,98475.69
2023-12-11T11:28:42.968Z,98472.06
2023-12-11T11:31:23.874Z,98461.44
2023-12-11T11:34:00.721Z,98459.78
2023-12-11T11:36:53.033Z,98457.91
2023-12-11T11:39:25.795Z,98455.31
2023-12-11T11:42:01.266Z,98449.44
2023-12-11T11:44:36.280Z,98454.63
2023-12-11T11:47:07.012Z,98437.00
2023-12-11T11:49:38.478Z,98445.66
2023-12-11T11:52:13.637Z,98443.75
2023-12-11T11:54:46.482Z,98443.75
2023-12-11T11:57:17.689Z,98444.50
2023-12-11T11:59:49.706Z,98443.78
2023-12-11T16:55:31.022Z,98410.47
2023-12-11T16:58:04.271Z,98408.78
2023-12-11T17:00:35.248Z,98417.56
2023-12-11T17:03:06.766Z,98403.75
2023-12-11T17:05:38.085Z,98416.09
2023-12-11T17:08:09.076Z,98414.41
2023-12-11T17:10:44.127Z,98410.16
2023-12-11T17:13:14.694Z,98408.56
2023-12-11T17:15:45.644Z,98407.84
2023-12-11T17:18:16.257Z,98412.28
2023-12-11T17:20:46.742Z,98401.03
2023-12-11T17:23:17.469Z,98407.19
2023-12-11T17:25:50.599Z,98402.00
2023-12-11T17:28:21.085Z,98401.19
2023-12-11T17:30:53.655Z,98392.47
2023-12-11T17:33:24.317Z,98384.66
2023-12-11T17:35:54.761Z,98376.84
2023-12-11T17:38:25.304Z,98385.59
2023-12-11T17:40:58.386Z,98378.63
2023-12-11T17:43:28.851Z,98355.09
2023-12-11T17:45:59.337Z,98344.66
2023-12-11T17:48:29.932Z,98351.69
2023-12-11T17:51:02.144Z,98346.47
2023-12-11T17:53:33.741Z,98337.75
2023-12-11T17:56:09.748Z,98343.84
2023-12-11T17:58:42.841Z,98338.59
2023-12-11T18:01:14.360Z,98327.25
2023-12-11T18:03:45.037Z,98336.81
2023-12-11T18:06:19.830Z,98341.09
2023-12-11T18:08:50.357Z,98331.53
2023-12-11T18:11:23.580Z,98333.25
2023-12-11T18:13:54.033Z,98339.34
2023-12-11T18:16:25.774Z,98341.91
2023-12-11T18:18:56.619Z,98339.34
2023-12-11T18:21:28.156Z,98337.56
2023-12-11T18:23:58.643Z,98334.06
2023-12-11T18:26:31.794Z,98332.31
2023-12-11T18:29:02.349Z,98332.28
2023-12-11T18:31:32.941Z,98334.91
2023-12-11T18:34:03.672Z,98333.16
2023-12-11T18:36:34.370Z,98329.66
2023-12-11T18:39:04.923Z,98335.75
2023-12-11T18:41:37.974Z,98327.91
2023-12-11T18:44:08.685Z,98332.16
2023-12-11T18:46:39.717Z,98335.63
2023-12-11T18:49:10.456Z,98334.72
2023-12-11T18:51:41.624Z,98339.94
2023-12-11T18:54:13.477Z,98337.31
2023-12-11T18:56:46.951Z,98337.34
2023-12-11T18:59:17.658Z,98344.28
2023-12-11T19:01:48.496Z,98344.25
2023-12-11T19:04:19.460Z,98355.59
2023-12-11T19:06:50.390Z,98351.16
2023-12-11T19:09:23.895Z,98362.19
2023-12-11T19:11:59.670Z,98360.44
2023-12-11T19:14:30.598Z,98355.19
2023-12-11T19:17:01.163Z,98361.34
2023-12-11T19:19:31.849Z,98362.16
2023-12-11T19:22:02.552Z,98368.22
2023-12-11T19:24:33.134Z,98368.31
2023-12-11T19:27:06.325Z,98374.47
2023-12-11T19:29:36.799Z,98379.75
2023-12-11T19:32:08.406Z,98378.97
2023-12-11T19:34:39.653Z,98374.66
2023-12-11T19:37:10.971Z,98382.53
2023-12-11T19:39:42.107Z,98366.84
2023-12-11T19:42:15.328Z,98384.31
2023-12-11T19:44:45.799Z,98380.00
2023-12-11T19:47:18.274Z,98373.94
2023-12-11T19:49:48.880Z,98377.41
2023-12-11T19:52:19.546Z,98376.53
2023-12-11T19:54:50.231Z,98370.50
2023-12-11T19:57:24.157Z,98374.00
2023-12-11T19:59:54.729Z,98388.84
2023-12-11T20:02:26.350Z,98387.06
2023-12-11T20:04:56.842Z,98376.56
2023-12-11T20:07:28.078Z,98389.59
2023-12-11T20:09:58.770Z,98397.47
2023-12-11T20:12:35.187Z,98403.59
2023-12-11T20:15:12.224Z,98400.91
2023-12-11T20:17:43.465Z,98401.81
2023-12-11T20:20:14.884Z,98407.06
2023-12-11T20:22:45.497Z,98403.66
2023-12-11T20:25:16.162Z,98408.88
2023-12-11T20:27:49.340Z,98406.28
2023-12-11T20:30:20.955Z,98406.34
2023-12-11T20:32:51.541Z,98409.91
2023-12-11T20:35:22.106Z,98412.50
2023-12-11T20:37:52.745Z,98425.56
2023-12-11T20:40:23.444Z,98423.88
2023-12-11T20:42:57.261Z,98425.66
2023-12-11T20:45:27.844Z,98430.91
2023-12-11T20:47:58.449Z,98436.13
2023-12-11T20:50:30.108Z,98432.63
2023-12-11T20:53:01.113Z,98447.41
2023-12-11T20:55:33.093Z,98445.69
2023-12-11T20:58:08.235Z,98441.28
2023-12-11T21:00:39.176Z,98456.97
2023-12-11T21:03:10.114Z,98458.72
2023-12-11T21:05:42.742Z,98458.75
2023-12-11T21:08:14.195Z,98466.59
2023-12-11T21:10:46.251Z,98467.53
2023-12-11T21:13:19.609Z,98450.94
2023-12-11T21:15:52.999Z,98470.16
2023-12-11T21:18:26.234Z,98474.53
2023-12-11T21:20:57.068Z,98479.75
2023-12-11T21:23:27.994Z,98475.41
2023-12-11T21:25:59.385Z,98481.53
2023-12-11T21:28:32.856Z,98478.91
2023-12-11T21:31:06.462Z,98490.22
2023-12-11T21:33:37.062Z,98485.00
2023-12-11T21:36:08.130Z,98489.38
2023-12-11T21:38:39.094Z,98497.19
2023-12-11T21:41:17.283Z,98485.84
2023-12-11T21:43:53.151Z,98485.84
2023-12-11T21:46:27.395Z,98496.31
2023-12-11T21:49:02.256Z,98485.00
2023-12-11T21:51:35.288Z,98509.44
2023-12-11T21:54:06.957Z,98518.16
2023-12-11T21:56:38.119Z,98512.06
2023-12-11T21:59:16.754Z,98513.84
2023-12-11T22:01:49.932Z,98526.03
2023-12-11T22:04:22.533Z,98531.28
2023-12-11T22:06:53.522Z,98542.63
2023-12-11T22:09:25.693Z,98547.00
2023-12-11T22:11:57.407Z,98546.97
2023-12-11T22:14:30.855Z,98560.91
2023-12-11T22:17:01.366Z,98551.28
2023-12-11T22:19:32.977Z,98563.50
2023-12-11T22:22:03.698Z,98573.00
2023-12-11T22:24:34.220Z,98569.53
2023-12-11T22:27:05.029Z,98591.31
2023-12-11T22:29:39.338Z,98585.13
2023-12-11T22:32:12.507Z,98581.69
2023-12-11T22:34:43.959Z,98592.13
2023-12-11T22:37:17.190Z,98600.81
2023-12-11T22:39:48.153Z,98592.94
2023-12-11T22:42:20.631Z,98595.53
2023-12-11T22:44:54.042Z,98589.38
2023-12-11T22:47:24.645Z,98604.19
2023-12-11T22:49:55.333Z,98619.03
2023-12-11T22:52:26.472Z,98613.78
2023-12-11T22:54:57.082Z,98620.75
2023-12-11T22:57:28.221Z,98626.00
2023-12-11T23:00:01.557Z,98626.88
2023-12-11T23:02:32.276Z,98632.06
2023-12-11T23:05:03.488Z,98646.91
2023-12-11T23:07:34.753Z,98641.69
2023-12-11T23:10:05.999Z,98657.38
2023-12-11T23:12:36.664Z,98645.16
2023-12-11T23:15:11.548Z,98655.63
2023-12-11T23:17:44.007Z,98654.72
2023-12-11T23:20:16.820Z,98656.47
2023-12-11T23:22:47.896Z,98666.91
2023-12-11T23:25:22.317Z,98659.97
2023-12-11T23:27:53.245Z,98669.53
2023-12-11T23:30:26.467Z,98654.78
2023-12-11T23:32:57.063Z,98668.72
2023-12-11T23:35:27.737Z,98661.78
2023-12-11T23:38:00.631Z,98662.69
2023-12-11T23:40:31.183Z,98670.53
2023-12-11T23:43:01.812Z,98676.66
2023-12-11T23:45:35.484Z,98686.25
2023-12-11T23:48:07.647Z,98693.25
2023-12-11T23:50:38.268Z,98697.63
2023-12-11T23:53:10.725Z,98693.28
2023-12-11T23:55:43.127Z,98698.56
2023-12-11T23:58:14.439Z,98709.06
